Darstellungsparameter: Aktuell verwendete Einstellungen:
Skalierung der Graphiken ... ?
xyx+y,   Skalierungsfaktor:      Skalierung: Modus: x, Faktor: 1
Darstellungszeitraum ... ?
Vom - - bis: - -   Zeitraum: 16.09.2010 - 16.09.2010
Min/Max/Avg-Anzeige ... ?
Zeige MMA aktuell
Zeige MMA Monat
Zeige MMA alles
Zeige --A aktuell
Zeige --A Monat
Zeige --A alles
Keine MMA-Anzeige
MMA:
Minimum Maximum Average (ber die Originaldaten)
MMA-Basis: 16.09.2010 - 16.09.2010
Quicknavigation für Darstellung... ?
Tage:      1T, 2T, 3T, 5T -1T -2T -3T -5T +1T +2T +3T +5T
Wochen: 1W, 2W, 3W -1W -2W -3W +1W +2W +3W
Monate: 1M, 3M, 6M -1M -3M -6M +1M +3M +6M
Jahre:    1J, 3J, 5J, 10J -1J -3J -5J -10J +1J +3J +5J +10J
Nutze für die Darstellung ... ?
Originaldaten oder Mittelwerte auf ...
Stundenbasis Tagesbasis Wochenbasis
Monatsbasis Jahresbasis      Datenbasis: Original-Daten
Darstellen als:
Statistik (Auto) Statistik J:M      Darstellung:
Zur Graphik,    zurück zur Übersicht aller Sensoren.
 
Tabellarische Datenbersicht: ?
 
Sensor: Nr:Datum:Temp:Abs-Feuchte:Windchill:Wind:
Aussen-T/F 1 16-09-2010 00:01:02 14.5 C 5.97 g/m*3 14.5 C 0 km/h
2 16-09-2010 00:13:02 14.4 C 5.93 g/m*3 14.4 C 0 km/h
3 16-09-2010 00:25:02 14.2 C 5.86 g/m*3 14.2 C 0 km/h
4 16-09-2010 00:37:02 13.8 C 5.96 g/m*3 13.8 C 0 km/h
5 16-09-2010 00:49:02 14 C 5.79 g/m*3 14 C 0 km/h
6 16-09-2010 01:01:02 14.1 C 5.58 g/m*3 14.1 C 0 km/h
7 16-09-2010 01:13:03 14.2 C 5.49 g/m*3 14.2 C 0 km/h
8 16-09-2010 01:25:03 14.1 C 5.34 g/m*3 14.1 C 0 km/h
9 16-09-2010 01:37:03 14.1 C 5.34 g/m*3 14.1 C 0 km/h
10 16-09-2010 01:49:03 14 C 5.31 g/m*3 14 C 0 km/h
11 16-09-2010 02:01:03 13.9 C 5.51 g/m*3 13.9 C 0 km/h
12 16-09-2010 02:13:03 14.1 C 5.58 g/m*3 14.1 C 0 km/h
13 16-09-2010 02:25:03 14 C 5.79 g/m*3 14 C 0 km/h
14 16-09-2010 02:37:03 13.7 C 5.92 g/m*3 13.7 C 0 km/h
15 16-09-2010 02:49:03 14 C 6.15 g/m*3 14 C 0 km/h
16 16-09-2010 03:01:03 13.9 C 6.35 g/m*3 13.9 C 0 km/h
17 16-09-2010 03:13:03 13.9 C 6.59 g/m*3 13.9 C 0 km/h
18 16-09-2010 03:25:03 13.9 C 6.71 g/m*3 13.9 C 0 km/h
19 16-09-2010 03:37:03 13.8 C 6.79 g/m*3 13.8 C 0 km/h
20 16-09-2010 03:49:03 13.7 C 7.1 g/m*3 13.7 C 0 km/h
21 16-09-2010 04:01:03 13.2 C 7.12 g/m*3 13.2 C 0 km/h
22 16-09-2010 04:13:03 13.6 C 6.94 g/m*3 13.6 C 0 km/h
23 16-09-2010 04:25:03 13.7 C 6.87 g/m*3 13.7 C 0 km/h
24 16-09-2010 04:37:03 13.7 C 6.99 g/m*3 13.7 C 0 km/h
25 16-09-2010 04:49:03 13.7 C 6.99 g/m*3 13.7 C 0 km/h
Sensor: Nr:Datum:Temp:Abs-Feuchte:Windchill:Wind:
Aussen-T/F 26 16-09-2010 05:01:03 13.7 C 6.99 g/m*3 13.7 C 0 km/h
27 16-09-2010 05:13:03 13.6 C 7.06 g/m*3 13.6 C 0 km/h
28 16-09-2010 05:25:04 13.2 C 7.35 g/m*3 13.2 C 0 km/h
29 16-09-2010 05:37:04 13.1 C 7.42 g/m*3 13.1 C 0 km/h
30 16-09-2010 05:49:04 13.2 C 7.46 g/m*3 13.2 C 0 km/h
31 16-09-2010 06:01:04 13.1 C 7.65 g/m*3 13.1 C 0 km/h
32 16-09-2010 06:13:04 12.6 C 7.97 g/m*3 12.6 C 0 km/h
33 16-09-2010 06:25:04 12.5 C 8.03 g/m*3 12.5 C 0 km/h
34 16-09-2010 06:37:04 12.1 C 8.26 g/m*3 12.1 C 0 km/h
35 16-09-2010 06:49:04 11.9 C 8.47 g/m*3 11.9 C 0 km/h
36 16-09-2010 07:01:04 11.9 C 8.47 g/m*3 11.9 C 0 km/h
37 16-09-2010 07:13:04 11.9 C 8.58 g/m*3 11.9 C 0 km/h
38 16-09-2010 07:25:04 11.9 C 8.79 g/m*3 11.9 C 0 km/h
39 16-09-2010 07:37:04 11.6 C 8.73 g/m*3 11.6 C 0 km/h
40 16-09-2010 07:49:04 11.6 C 8.83 g/m*3 11.6 C 0 km/h
41 16-09-2010 08:01:02 11.6 C 8.83 g/m*3 11.6 C 0 km/h
42 16-09-2010 08:13:02 11.7 C 8.79 g/m*3 11.7 C 0 km/h
43 16-09-2010 08:25:02 12 C 8.85 g/m*3 12 C 0 km/h
44 16-09-2010 08:37:02 12 C 8.85 g/m*3 12 C 0 km/h
45 16-09-2010 08:49:02 12 C 8.85 g/m*3 12 C 0 km/h
46 16-09-2010 09:01:02 12 C 8.95 g/m*3 12 C 0 km/h
47 16-09-2010 09:13:02 12.1 C 9.01 g/m*3 12.1 C 0 km/h
48 16-09-2010 09:25:01 12.6 C 9.29 g/m*3 12.6 C 0 km/h
49 16-09-2010 09:37:02 13 C 9.41 g/m*3 13 C 0 km/h
50 16-09-2010 09:49:02 13.5 C 9.59 g/m*3 13.5 C 0 km/h
Sensor: Nr:Datum:Temp:Abs-Feuchte:Windchill:Wind:
Aussen-T/F 51 16-09-2010 10:01:02 13.7 C 9.12 g/m*3 13.7 C 0 km/h
52 16-09-2010 10:13:02 14 C 8.68 g/m*3 14 C 0 km/h
53 16-09-2010 10:25:02 14 C 8.56 g/m*3 14 C 0 km/h
54 16-09-2010 10:37:02 14.3 C 8.35 g/m*3 14.3 C 0 km/h
55 16-09-2010 10:49:02 14.6 C 8.51 g/m*3 14.6 C 0 km/h
56 16-09-2010 11:01:02 15.2 C 8.18 g/m*3 15.2 C 0 km/h
57 16-09-2010 11:13:02 15 C 8.08 g/m*3 15 C 0 km/h
58 16-09-2010 11:25:02 15.2 C 8.44 g/m*3 15.2 C 0 km/h
59 16-09-2010 11:37:02 15.1 C 8.26 g/m*3 15.1 C 0 km/h
60 16-09-2010 11:49:01 15.8 C 8.21 g/m*3 15.8 C 0 km/h
61 16-09-2010 12:01:02 16.4 C 7.82 g/m*3 16.4 C 0 km/h
62 16-09-2010 12:13:02 16.7 C 7.82 g/m*3 16.7 C 0 km/h
63 16-09-2010 12:25:02 17.2 C 7.61 g/m*3 17.2 C 0 km/h
64 16-09-2010 12:37:02 17.1 C 7.42 g/m*3 17.1 C 0 km/h
65 16-09-2010 12:49:02 17.7 C 7.69 g/m*3 17.7 C 0 km/h
66 16-09-2010 13:01:01 17.7 C 7.09 g/m*3 17.7 C 0 km/h
67 16-09-2010 13:13:01 17.9 C 7.02 g/m*3 17.9 C 0 km/h
68 16-09-2010 13:25:02 17.4 C 6.97 g/m*3 17.4 C 0 km/h
69 16-09-2010 13:37:01 16.9 C 7.34 g/m*3 16.9 C 0 km/h
70 16-09-2010 13:49:01 16.7 C 7.39 g/m*3 16.7 C 0 km/h
71 16-09-2010 14:01:01 17 C 7.23 g/m*3 17 C 0 km/h
72 16-09-2010 14:13:01 16 C 7.36 g/m*3 16 C 0 km/h
73 16-09-2010 14:25:01 14 C 8.81 g/m*3 14 C 0 km/h
74 16-09-2010 14:37:02 14.2 C 9.52 g/m*3 14.2 C 0 km/h
75 16-09-2010 14:49:02 15.2 C 10.25 g/m*3 15.2 C 0 km/h
Sensor: Nr:Datum:Temp:Abs-Feuchte:Windchill:Wind:
Aussen-T/F 76 16-09-2010 15:01:02 15.9 C 10.29 g/m*3 15.9 C 0 km/h
77 16-09-2010 15:13:02 16.8 C 9.44 g/m*3 16.8 C 0 km/h
78 16-09-2010 15:25:01 17 C 8.97 g/m*3 17 C 0 km/h
79 16-09-2010 15:37:02 18.5 C 9.02 g/m*3 18.5 C 0 km/h
80 16-09-2010 15:49:02 17.9 C 7.79 g/m*3 17.9 C 0 km/h
81 16-09-2010 16:01:02 18.3 C 7.82 g/m*3 18.3 C 0 km/h
82 16-09-2010 16:13:03 17.4 C 7.56 g/m*3 17.4 C 0 km/h
83 16-09-2010 16:25:01 16.6 C 8.05 g/m*3 16.6 C 0 km/h
84 16-09-2010 16:37:02 15 C 8.85 g/m*3 15 C 0 km/h
85 16-09-2010 16:49:02 14.5 C 9.7 g/m*3 14.5 C 0 km/h
86 16-09-2010 17:01:02 14.5 C 9.83 g/m*3 14.5 C 0 km/h
87 16-09-2010 17:13:02 15.1 C 10.06 g/m*3 15.1 C 0 km/h
88 16-09-2010 17:25:02 15.5 C 9.65 g/m*3 15.5 C 0 km/h
89 16-09-2010 17:37:02 15.2 C 9.22 g/m*3 15.2 C 0 km/h
90 16-09-2010 17:49:02 16.2 C 8.69 g/m*3 16.2 C 0 km/h
91 16-09-2010 18:01:02 15.3 C 8.88 g/m*3 15.3 C 0 km/h
92 16-09-2010 18:13:02 15 C 8.72 g/m*3 15 C 0 km/h
93 16-09-2010 18:25:02 15 C 8.85 g/m*3 15 C 0 km/h
94 16-09-2010 18:37:01 14.8 C 8.99 g/m*3 14.8 C 0 km/h
95 16-09-2010 18:49:02 14.4 C 9.27 g/m*3 14.4 C 0 km/h
96 16-09-2010 19:01:01 13.8 C 9.41 g/m*3 13.8 C 0 km/h
97 16-09-2010 19:13:01 13.5 C 9.59 g/m*3 13.5 C 0 km/h
98 16-09-2010 19:25:02 13.4 C 9.76 g/m*3 13.4 C 0 km/h
99 16-09-2010 19:37:02 13.3 C 9.82 g/m*3 13.3 C 0 km/h
100 16-09-2010 19:49:02 13.1 C 9.81 g/m*3 13.1 C 0 km/h
Sensor: Nr:Datum:Temp:Abs-Feuchte:Windchill:Wind:
Aussen-T/F 101 16-09-2010 20:01:02 13 C 9.87 g/m*3 13 C 0 km/h
102 16-09-2010 20:13:02 13 C 9.98 g/m*3 13 C 0 km/h
103 16-09-2010 20:25:02 12.8 C 10.08 g/m*3 12.8 C 0 km/h
104 16-09-2010 20:37:02 12.7 C 10.02 g/m*3 12.7 C 0 km/h
105 16-09-2010 20:49:02 12.7 C 10.13 g/m*3 12.7 C 0 km/h
106 16-09-2010 21:01:02 12.6 C 10.07 g/m*3 12.6 C 0 km/h
107 16-09-2010 21:13:02 12.7 C 10.13 g/m*3 12.7 C 0 km/h
108 16-09-2010 21:25:01 12.7 C 10.13 g/m*3 12.7 C 0 km/h
109 16-09-2010 21:37:02 12.6 C 10.07 g/m*3 12.6 C 0 km/h
110 16-09-2010 21:49:02 12.5 C 10 g/m*3 12.5 C 0 km/h
111 16-09-2010 22:01:02 12.2 C 9.71 g/m*3 12.2 C 0 km/h
112 16-09-2010 22:13:02 12.2 C 9.6 g/m*3 12.2 C 0 km/h
113 16-09-2010 22:25:02 12.2 C 9.6 g/m*3 12.2 C 0 km/h
114 16-09-2010 22:38:02 12.2 C 9.5 g/m*3 12.2 C 0 km/h
115 16-09-2010 22:50:02 12.2 C 9.5 g/m*3 12.2 C 0 km/h
116 16-09-2010 23:02:02 12.2 C 9.5 g/m*3 12.2 C 0 km/h
117 16-09-2010 23:14:02 12.1 C 9.33 g/m*3 12.1 C 0 km/h
118 16-09-2010 23:26:02 12.1 C 9.22 g/m*3 12.1 C 0 km/h
119 16-09-2010 23:38:02 12.1 C 9.22 g/m*3 12.1 C 0 km/h
120 16-09-2010 23:50:02 12 C 9.17 g/m*3 12 C 0 km/h

Legende:
   Min
   Max


Maximal/Minimal-Werte vom 16.09.2010 - 16.09.2010

Sensor Min Max Avg
Temp
(Aussen-T/F)
11.6 °C
16-09-2010  07:37:04
18.5 °C
16-09-2010  15:37:02
14.07 °C
Abs-Feuchte
(Aussen-T/F)
5.31 g/m*3
16-09-2010  01:49:03
10.29 g/m*3
16-09-2010  15:01:02
8.17 g/m*3
Windchill
(Aussen-T/F)
11.6 C
16-09-2010  07:37:04
18.5 C
16-09-2010  15:37:02
13.95 C

Die Daten stammen von einer Davis Vantage Pro 2 Wetter-Station und werden unter Linux mit der Software wview2wettercgi und aufbereitet. Alle Angaben erfolgen ohne Gewähr für ihre Vollständigkeit oder Richtigkeit.
Kontakt: Rainer Krienke krienke@uni-koblenz.de . Meine Webseiten an der Uni Koblenz oder privat.
Version: $Revision: 0.78 $